Freshwater, Canada
Current Conditions -  °F | °C
As of 11:00 AM on Wednesday 22 Oct 2014 (Local Time) from CYYT Reporting Station
Broken Clouds Broken Clouds  
Wind Chill: 46°   Ceiling: 14000
Heat Index: 46°   Visibility: 15mi
Dew Point: 39°   Wind: 3mph
Humidity: 76%   Direction: 290°WNW
Pressure: 30.44"   Gusts: NA
Location:  47.75°N, 53.2°W
Report Text: CYYT 221300Z 29003KT 15SM FEW012 SCT025 BKN140 08/04 A3044 RMK SF1SC2AC4 SLP313
Loading
Personal Weather Stations






























Interactive Weather Map
Tropical Storm Tracking
New forecast layout! Learn more

10-Day Weather Forecast

Advertisements
Track Severe Weather on mobile